createdAt,value
2022-10-17T00:01:39.232Z,100.00
2022-10-17T00:04:49.165Z,100.00
2022-10-17T00:07:47.411Z,100.00
2022-10-17T00:11:03.851Z,100.00
2022-10-17T00:14:04.059Z,100.00
2022-10-17T00:17:36.563Z,100.00
2022-10-17T00:20:40.045Z,100.00
2022-10-17T00:27:03.068Z,100.00
2022-10-17T00:34:00.844Z,100.00
2022-10-17T00:37:32.167Z,100.00
2022-10-17T00:40:46.216Z,100.00
2022-10-17T00:50:59.411Z,100.00
2022-10-17T00:54:15.606Z,100.00
2022-10-17T00:57:17.132Z,100.00
2022-10-17T01:00:08.981Z,100.00
2022-10-17T01:02:57.235Z,100.00
2022-10-17T01:09:01.059Z,100.00
2022-10-17T01:16:16.281Z,100.00
2022-10-17T01:19:35.548Z,100.00
2022-10-17T01:22:31.651Z,100.00
2022-10-17T01:25:32.222Z,100.00
2022-10-17T01:31:55.288Z,100.00
2022-10-17T01:35:07.810Z,100.00
2022-10-17T01:41:54.809Z,100.00
2022-10-17T01:45:08.457Z,100.00
2022-10-17T01:51:55.872Z,100.00
2022-10-17T01:55:12.016Z,100.00
2022-10-17T02:01:30.789Z,100.00
2022-10-17T02:04:22.442Z,100.00
2022-10-17T02:07:10.463Z,100.00
2022-10-17T02:09:59.511Z,100.00
2022-10-17T02:12:57.239Z,100.00
2022-10-17T02:16:21.499Z,100.00
2022-10-17T02:19:44.746Z,100.00
2022-10-17T02:22:51.238Z,100.00
2022-10-17T02:25:49.534Z,100.00
2022-10-17T02:28:49.143Z,100.00
2022-10-17T02:31:45.751Z,100.00
2022-10-17T02:34:37.632Z,100.00
2022-10-17T02:37:30.083Z,100.00
2022-10-17T02:40:38.101Z,100.00
2022-10-17T02:43:48.584Z,100.00
2022-10-17T02:46:43.887Z,100.00
2022-10-17T02:49:37.737Z,100.00
2022-10-17T02:52:47.616Z,100.00
2022-10-17T02:55:39.775Z,100.00
2022-10-17T02:58:32.669Z,100.00
2022-10-17T03:01:22.342Z,100.00
2022-10-17T03:04:15.356Z,100.00
2022-10-17T03:07:29.542Z,100.00
2022-10-17T03:10:42.790Z,100.00
2022-10-17T03:13:30.259Z,100.00
2022-10-17T03:16:24.675Z,100.00
2022-10-17T03:19:20.492Z,100.00
2022-10-17T03:22:08.518Z,100.00
2022-10-17T03:24:57.407Z,100.00
2022-10-17T03:27:59.831Z,100.00
2022-10-17T03:30:50.197Z,100.00
2022-10-17T03:33:38.119Z,100.00
2022-10-17T03:36:25.667Z,100.00
2022-10-17T03:39:14.357Z,100.00
2022-10-17T03:42:02.794Z,100.00
2022-10-17T03:45:02.018Z,100.00
2022-10-17T03:47:51.775Z,100.00
2022-10-17T03:50:42.837Z,100.00
2022-10-17T03:53:38.684Z,100.00
2022-10-17T03:56:27.886Z,100.00
2022-10-17T03:59:28.494Z,100.00
2022-10-17T04:02:27.943Z,100.00
2022-10-17T04:05:15.351Z,100.00
2022-10-17T04:08:04.734Z,100.00
2022-10-17T04:11:21.775Z,100.00
2022-10-17T04:14:10.431Z,100.00
2022-10-17T04:16:58.732Z,100.00
2022-10-17T04:19:50.237Z,100.00
2022-10-17T04:22:38.847Z,100.00
2022-10-17T04:25:33.481Z,100.00
2022-10-17T04:28:23.522Z,100.00
2022-10-17T04:31:15.332Z,100.00
2022-10-17T04:34:22.008Z,100.00
2022-10-17T04:37:10.536Z,100.00
2022-10-17T04:39:58.332Z,100.00
2022-10-17T04:42:46.548Z,100.00
2022-10-17T04:45:39.491Z,100.00
2022-10-17T04:48:28.895Z,100.00
2022-10-17T04:51:18.771Z,100.00
2022-10-17T04:54:32.256Z,100.00
2022-10-17T04:57:29.916Z,100.00
2022-10-17T05:00:28.075Z,100.00
2022-10-17T05:03:26.877Z,100.00
2022-10-17T05:06:22.811Z,100.00
2022-10-17T05:09:33.261Z,100.00
2022-10-17T05:12:20.564Z,100.00
2022-10-17T05:15:13.707Z,100.00
2022-10-17T05:18:02.518Z,100.00
2022-10-17T05:20:50.637Z,100.00
2022-10-17T05:23:39.817Z,100.00
2022-10-17T05:26:29.255Z,100.00
2022-10-17T05:29:17.802Z,100.00
2022-10-17T05:32:10.820Z,100.00
2022-10-17T05:34:58.086Z,100.00
2022-10-17T05:37:56.236Z,100.00
2022-10-17T05:40:47.637Z,100.00
2022-10-17T05:43:44.781Z,100.00
2022-10-17T05:46:37.007Z,100.00
2022-10-17T05:49:45.073Z,100.00
2022-10-17T05:52:38.816Z,100.00
2022-10-17T05:55:30.933Z,100.00
2022-10-17T05:58:49.384Z,100.00
2022-10-17T06:01:52.118Z,100.00
2022-10-17T06:04:46.364Z,100.00
2022-10-17T06:07:35.772Z,100.00
2022-10-17T06:10:24.640Z,100.00
2022-10-17T06:13:15.119Z,100.00
2022-10-17T06:16:02.480Z,100.00
2022-10-17T06:18:52.525Z,100.00
2022-10-17T06:21:39.969Z,100.00
2022-10-17T06:24:31.820Z,100.00
2022-10-17T06:27:23.171Z,100.00
2022-10-17T06:30:13.226Z,100.00
2022-10-17T06:33:01.313Z,100.00
2022-10-17T06:35:54.355Z,100.00
2022-10-17T06:38:46.004Z,100.00
2022-10-17T06:41:41.439Z,100.00
2022-10-17T06:44:32.664Z,100.00
2022-10-17T06:47:39.019Z,100.00
2022-10-17T06:50:41.049Z,100.00
2022-10-17T06:53:42.900Z,100.00
2022-10-17T06:56:48.693Z,100.00
2022-10-17T06:59:41.947Z,100.00
2022-10-17T07:02:33.518Z,100.00
2022-10-17T07:05:22.436Z,100.00
2022-10-17T07:08:11.634Z,100.00
2022-10-17T07:11:01.319Z,100.00
2022-10-17T07:13:49.595Z,100.00
2022-10-17T07:16:37.368Z,100.00
2022-10-17T07:19:39.659Z,100.00
2022-10-17T07:22:28.941Z,100.00
2022-10-17T07:25:20.610Z,100.00
2022-10-17T07:28:13.172Z,100.00
2022-10-17T07:31:06.644Z,100.00
2022-10-17T07:33:55.052Z,100.00
2022-10-17T07:36:42.981Z,100.00
2022-10-17T07:39:31.362Z,100.00
2022-10-17T07:42:18.872Z,100.00
2022-10-17T07:48:14.470Z,100.00
2022-10-17T07:51:03.813Z,100.00
2022-10-17T07:53:50.994Z,100.00
2022-10-17T07:56:38.550Z,100.00
2022-10-17T07:59:26.683Z,100.00
2022-10-17T08:02:22.942Z,100.00
2022-10-17T08:05:10.670Z,100.00
2022-10-17T08:07:59.759Z,100.00
2022-10-17T08:10:47.202Z,100.00
2022-10-17T08:13:35.180Z,100.00
2022-10-17T08:16:22.667Z,100.00
2022-10-17T08:19:11.668Z,100.00
2022-10-17T08:22:08.822Z,100.00
2022-10-17T08:24:56.531Z,100.00
2022-10-17T08:27:43.613Z,100.00
2022-10-17T08:30:31.810Z,100.00
2022-10-17T08:33:18.881Z,100.00
2022-10-17T08:36:09.586Z,100.00
2022-10-17T08:39:05.528Z,100.00
2022-10-17T08:42:19.450Z,100.00
2022-10-17T08:45:18.506Z,100.00
2022-10-17T08:48:12.646Z,100.00
2022-10-17T08:51:03.831Z,100.00
2022-10-17T08:53:57.200Z,100.00
2022-10-17T08:56:49.727Z,100.00
2022-10-17T08:59:36.815Z,100.00
2022-10-17T09:02:51.750Z,100.00
2022-10-17T09:05:47.803Z,100.00
2022-10-17T09:08:44.998Z,100.00
2022-10-17T09:11:48.375Z,100.00
2022-10-17T09:15:07.091Z,100.00
2022-10-17T09:17:58.568Z,100.00
2022-10-17T09:20:48.948Z,100.00
2022-10-17T09:23:45.508Z,100.00
2022-10-17T09:26:34.429Z,100.00
2022-10-17T09:29:27.710Z,100.00
2022-10-17T09:32:20.561Z,100.00
2022-10-17T09:35:14.628Z,100.00
2022-10-17T09:38:01.756Z,100.00
2022-10-17T09:40:57.112Z,100.00
2022-10-17T09:43:46.723Z,100.00
2022-10-17T09:46:39.516Z,100.00
2022-10-17T09:49:34.723Z,100.00
2022-10-17T09:52:29.334Z,100.00
2022-10-17T09:55:23.709Z,100.00
2022-10-17T09:58:15.165Z,100.00
2022-10-17T10:01:22.714Z,100.00
2022-10-17T10:04:16.065Z,100.00
2022-10-17T10:07:05.300Z,100.00
2022-10-17T10:09:53.235Z,100.00
2022-10-17T10:12:41.202Z,100.00
2022-10-17T10:15:41.345Z,100.00
2022-10-17T10:18:31.840Z,100.00
2022-10-17T10:21:21.977Z,100.00
2022-10-17T10:24:15.002Z,100.00
2022-10-17T10:27:04.687Z,100.00
2022-10-17T10:29:53.774Z,100.00
2022-10-17T10:32:40.341Z,100.00
2022-10-17T10:35:35.612Z,100.00
2022-10-17T10:38:23.780Z,100.00
2022-10-17T10:41:47.328Z,100.00
2022-10-17T10:44:57.314Z,100.00
2022-10-17T10:47:58.766Z,100.00
2022-10-17T10:51:08.082Z,100.00
2022-10-17T10:54:32.744Z,100.00
2022-10-17T10:57:26.971Z,100.00
2022-10-17T11:00:19.005Z,100.00
2022-10-17T11:03:14.057Z,100.00
2022-10-17T11:06:07.009Z,100.00
2022-10-17T11:09:11.386Z,100.00
2022-10-17T11:12:26.829Z,100.00
2022-10-17T11:15:22.828Z,100.00
2022-10-17T11:18:17.580Z,100.00
2022-10-17T11:21:13.551Z,100.00
2022-10-17T11:24:09.759Z,100.00
2022-10-17T11:27:02.279Z,100.00
2022-10-17T11:29:48.937Z,100.00
2022-10-17T11:32:43.587Z,100.00
2022-10-17T11:35:35.198Z,100.00
2022-10-17T11:38:38.140Z,100.00
2022-10-17T11:41:32.696Z,100.00
2022-10-17T11:44:26.453Z,100.00
2022-10-17T11:47:32.141Z,100.00
2022-10-17T11:53:48.897Z,100.00
2022-10-17T11:56:43.482Z,99.91
2022-10-17T11:59:57.722Z,100.00
2022-10-17T12:02:49.534Z,100.00
2022-10-17T12:05:46.903Z,100.00
2022-10-17T12:08:42.532Z,100.00
2022-10-17T12:11:41.574Z,100.00
2022-10-17T12:14:46.802Z,99.97
2022-10-17T12:17:39.060Z,100.00
2022-10-17T12:20:31.740Z,100.00
2022-10-17T12:23:30.059Z,100.00
2022-10-17T12:26:27.320Z,100.00
2022-10-17T12:29:29.720Z,100.00
2022-10-17T12:32:18.086Z,100.00
2022-10-17T12:35:06.099Z,100.00
2022-10-17T12:38:24.670Z,96.47
2022-10-17T12:41:11.889Z,98.08
2022-10-17T12:43:58.338Z,95.97
2022-10-17T12:46:51.240Z,97.87
2022-10-17T12:49:44.219Z,95.01
2022-10-17T12:52:55.987Z,96.36
2022-10-17T12:55:42.910Z,94.19
2022-10-17T12:58:30.597Z,94.75
2022-10-17T13:01:33.656Z,93.00
2022-10-17T13:04:21.601Z,94.52
2022-10-17T13:07:20.861Z,91.18
2022-10-17T13:10:11.620Z,91.90
2022-10-17T13:13:07.884Z,92.33
2022-10-17T13:15:56.192Z,92.33
2022-10-17T13:18:43.193Z,91.29
2022-10-17T13:21:30.411Z,91.34
2022-10-17T13:24:30.248Z,92.21
2022-10-17T13:27:27.235Z,91.47
2022-10-17T13:30:31.202Z,91.28
2022-10-17T13:33:40.727Z,90.89
2022-10-17T13:36:29.084Z,89.65
2022-10-17T13:39:23.103Z,91.79
2022-10-17T13:42:26.209Z,94.59
2022-10-17T13:45:20.258Z,92.25
2022-10-17T13:48:18.188Z,93.41
2022-10-17T13:51:10.488Z,93.89
2022-10-17T13:53:57.927Z,93.77
2022-10-17T13:56:44.876Z,93.64
2022-10-17T13:59:38.153Z,92.90
2022-10-17T14:02:26.959Z,94.81
2022-10-17T14:05:18.307Z,96.42
2022-10-17T14:08:11.773Z,95.65
2022-10-17T14:11:00.111Z,93.46
2022-10-17T14:13:51.355Z,94.45
2022-10-17T14:16:42.318Z,95.68
2022-10-17T14:19:32.606Z,91.89
2022-10-17T14:22:27.783Z,91.87
2022-10-17T14:25:35.919Z,92.03
2022-10-17T14:28:24.111Z,89.83
2022-10-17T14:31:19.681Z,87.51
2022-10-17T14:34:07.574Z,88.96
2022-10-17T14:36:54.962Z,88.42
2022-10-17T14:39:41.621Z,87.50
2022-10-17T14:42:28.507Z,88.01
2022-10-17T14:45:23.804Z,89.54
2022-10-17T14:48:14.540Z,86.89
2022-10-17T14:51:11.333Z,88.88
2022-10-17T14:54:05.521Z,89.93
2022-10-17T14:56:54.419Z,90.65
2022-10-17T14:59:56.471Z,89.86
2022-10-17T15:02:43.677Z,89.41
2022-10-17T15:05:30.441Z,90.38
2022-10-17T15:08:20.367Z,90.72
2022-10-17T15:11:07.064Z,90.17
2022-10-17T15:13:53.839Z,91.59
2022-10-17T15:16:40.635Z,91.65
2022-10-17T15:19:27.442Z,92.80
2022-10-17T15:22:14.939Z,92.34
2022-10-17T15:25:03.307Z,94.58
2022-10-17T15:27:50.183Z,93.92
2022-10-17T15:30:38.004Z,95.79
2022-10-17T15:33:24.564Z,94.54
2022-10-17T15:36:23.062Z,97.37
2022-10-17T15:39:11.693Z,96.33
2022-10-17T15:42:00.078Z,98.28
2022-10-17T15:44:49.714Z,98.38
2022-10-17T15:47:37.657Z,99.29
2022-10-17T15:50:24.468Z,100.00
2022-10-17T15:53:12.996Z,100.00
2022-10-17T15:56:00.527Z,100.00
2022-10-17T15:58:48.757Z,100.00
2022-10-17T16:01:36.093Z,100.00
2022-10-17T16:04:24.195Z,100.00
2022-10-17T16:07:11.844Z,100.00
2022-10-17T16:09:58.399Z,100.00
2022-10-17T16:22:22.094Z,100.00
2022-10-17T16:25:19.615Z,100.00
2022-10-17T16:28:08.399Z,100.00
2022-10-17T16:30:55.059Z,100.00
2022-10-17T16:33:41.962Z,100.00
2022-10-17T16:36:29.457Z,100.00
2022-10-17T16:39:17.771Z,100.00
2022-10-17T16:42:04.674Z,100.00
2022-10-17T16:44:51.715Z,100.00
2022-10-17T16:47:38.548Z,100.00
2022-10-17T16:50:25.644Z,100.00
2022-10-17T17:02:58.880Z,100.00
2022-10-17T17:05:51.799Z,100.00
2022-10-17T17:08:38.641Z,100.00
2022-10-17T17:11:27.706Z,100.00
2022-10-17T17:14:14.493Z,100.00
2022-10-17T17:17:01.086Z,100.00
2022-10-17T17:19:49.256Z,100.00
2022-10-17T17:22:36.248Z,100.00
2022-10-17T17:25:23.122Z,100.00
2022-10-17T17:28:10.420Z,100.00
2022-10-17T17:30:57.131Z,100.00
2022-10-17T17:33:46.086Z,100.00
2022-10-17T17:36:36.486Z,100.00
2022-10-17T17:39:24.074Z,100.00
2022-10-17T17:42:10.694Z,100.00
2022-10-17T17:44:57.517Z,100.00
2022-10-17T17:47:45.624Z,100.00
2022-10-17T17:50:32.954Z,100.00
2022-10-17T17:53:21.047Z,100.00
2022-10-17T17:56:10.261Z,100.00
2022-10-17T17:58:58.758Z,100.00
2022-10-17T18:01:45.492Z,100.00
2022-10-17T18:04:32.082Z,100.00
2022-10-17T18:07:18.885Z,100.00
2022-10-17T18:10:08.803Z,100.00
2022-10-17T18:12:55.761Z,100.00
2022-10-17T18:15:42.881Z,100.00
2022-10-17T18:18:31.103Z,100.00
2022-10-17T18:21:17.737Z,100.00
2022-10-17T18:24:05.344Z,100.00
2022-10-17T18:26:56.186Z,100.00
2022-10-17T18:29:43.283Z,100.00
2022-10-17T18:32:31.896Z,100.00
2022-10-17T18:35:19.017Z,100.00
2022-10-17T18:38:05.465Z,100.00
2022-10-17T18:41:02.598Z,100.00
2022-10-17T18:43:51.705Z,100.00
2022-10-17T18:46:41.019Z,100.00
2022-10-17T18:49:27.656Z,100.00
2022-10-17T18:52:14.491Z,100.00
2022-10-17T18:55:01.258Z,100.00
2022-10-17T18:57:49.100Z,100.00
2022-10-17T19:00:37.678Z,100.00
2022-10-17T19:03:27.349Z,100.00
2022-10-17T19:06:16.521Z,100.00
2022-10-17T19:09:07.832Z,100.00
2022-10-17T19:12:01.401Z,100.00
2022-10-17T19:14:51.341Z,100.00
2022-10-17T19:17:39.259Z,100.00
2022-10-17T19:20:26.106Z,100.00
2022-10-17T19:23:12.897Z,100.00
2022-10-17T19:26:03.701Z,100.00
2022-10-17T19:28:53.796Z,100.00
2022-10-17T19:31:40.532Z,100.00
2022-10-17T19:34:28.884Z,100.00
2022-10-17T19:37:18.338Z,100.00
2022-10-17T19:40:05.613Z,100.00
2022-10-17T19:42:52.300Z,100.00
2022-10-17T19:45:39.500Z,100.00
2022-10-17T19:48:28.352Z,100.00
2022-10-17T19:51:19.382Z,100.00
2022-10-17T19:54:08.250Z,100.00
2022-10-17T19:56:56.557Z,100.00
2022-10-17T19:59:44.576Z,100.00
2022-10-17T20:02:34.320Z,100.00
2022-10-17T20:05:25.910Z,100.00
2022-10-17T20:08:17.205Z,100.00
2022-10-17T20:11:10.969Z,100.00
2022-10-17T20:14:03.949Z,100.00
2022-10-17T20:16:53.631Z,100.00
2022-10-17T20:19:40.208Z,100.00
2022-10-17T20:22:27.045Z,100.00
2022-10-17T20:25:15.060Z,100.00
2022-10-17T20:28:01.980Z,100.00
2022-10-17T20:30:48.787Z,100.00
2022-10-17T20:33:35.717Z,100.00
2022-10-17T20:36:23.627Z,100.00
2022-10-17T20:39:12.352Z,100.00
2022-10-17T20:42:00.396Z,100.00
2022-10-17T20:44:48.310Z,100.00
2022-10-17T20:47:46.049Z,100.00
2022-10-17T20:50:37.492Z,100.00
2022-10-17T20:53:41.778Z,100.00
2022-10-17T20:56:31.374Z,100.00
2022-10-17T20:59:19.895Z,100.00
2022-10-17T21:02:07.627Z,100.00
2022-10-17T21:04:54.480Z,100.00
2022-10-17T21:07:41.336Z,100.00
2022-10-17T21:10:35.320Z,100.00
2022-10-17T21:13:22.604Z,100.00
2022-10-17T21:16:12.443Z,100.00
2022-10-17T21:18:59.853Z,100.00
2022-10-17T21:21:47.461Z,100.00
2022-10-17T21:24:34.487Z,100.00
2022-10-17T21:27:21.233Z,100.00
2022-10-17T21:33:03.203Z,100.00
2022-10-17T21:35:56.347Z,100.00
2022-10-17T21:38:44.733Z,100.00
2022-10-17T21:41:32.707Z,100.00
2022-10-17T21:44:23.703Z,100.00
2022-10-17T21:47:10.969Z,100.00
2022-10-17T21:49:59.396Z,100.00
2022-10-17T21:52:46.476Z,100.00
2022-10-17T21:55:33.650Z,100.00
2022-10-17T21:58:21.121Z,100.00
2022-10-17T22:01:09.927Z,100.00
2022-10-17T22:03:58.490Z,100.00
2022-10-17T22:06:51.125Z,100.00
2022-10-17T22:09:38.254Z,100.00
2022-10-17T22:12:27.170Z,100.00
2022-10-17T22:18:05.837Z,100.00
2022-10-17T22:20:52.888Z,100.00
2022-10-17T22:23:41.065Z,100.00
2022-10-17T22:26:28.632Z,100.00
2022-10-17T22:29:15.487Z,100.00
2022-10-17T22:32:02.449Z,100.00
2022-10-17T22:34:49.096Z,100.00
2022-10-17T22:37:35.770Z,100.00
2022-10-17T22:40:23.944Z,100.00
2022-10-17T22:43:10.668Z,100.00
2022-10-17T22:45:59.823Z,100.00
2022-10-17T22:48:46.323Z,100.00
2022-10-17T22:51:33.209Z,100.00
2022-10-17T22:54:19.940Z,100.00
2022-10-17T22:57:08.441Z,100.00
2022-10-17T22:59:55.174Z,100.00
2022-10-17T23:02:42.222Z,100.00
2022-10-17T23:05:28.603Z,100.00
2022-10-17T23:08:17.923Z,100.00
2022-10-17T23:11:05.329Z,100.00
2022-10-17T23:13:53.591Z,100.00
2022-10-17T23:16:40.133Z,100.00
2022-10-17T23:19:27.023Z,100.00
2022-10-17T23:22:14.733Z,100.00
2022-10-17T23:25:01.482Z,100.00
2022-10-17T23:27:48.183Z,100.00
2022-10-17T23:30:36.831Z,100.00
2022-10-17T23:33:23.534Z,100.00
2022-10-17T23:36:11.385Z,100.00
2022-10-17T23:38:58.816Z,100.00
2022-10-17T23:41:45.485Z,100.00
2022-10-17T23:44:31.974Z,100.00
2022-10-17T23:47:20.277Z,100.00
2022-10-17T23:50:08.159Z,100.00
2022-10-17T23:52:54.865Z,100.00
2022-10-17T23:55:41.802Z,100.00
2022-10-17T23:58:28.366Z,100.00
